Terminal Aerodrome Forecast
Issued by NWS

Home | Current Version | Previous Version | Text Only | Print | Product List | Glossary On
Versions: 1 2 3 4 5 6 7 8 9 10 11 12 13 14 15 16 17 18 19 20 21 22 23 24 25 26 27 28 29 30 31 32 33 34 35 36 37 38
000
FTUS45 KGJT 251742
TAFEGE
TAFEGE
TAF
KEGE 251742Z 2518/2618 25005KT P6SM VCTS SCT060CB BKN140
      TEMPO 2521/2601 VRB10G20KT -TSRA BKN060CB
     FM260300 08003KT P6SM BKN100
     FM261000 00000KT P6SM FEW020 OVC060
     FM261500 VRB03KT P6SM FEW040 BKN110=

USA.gov is the U.S. government's official web portal to all federal, state and local government web resources and services.